»·PEaware :: FDX980 KPDX-KYKM

FDX980 :: KPDX-KYKM

FLIGHT INFORMATION

Flight Status: Arrived
Operator:
Federal Express
More flights by this operator :: More flights under this callsign
Pilot: Alex C. (14758)
Aircraft: BEECH AIRCRAFT BEECH AIRLINER
(B190)
More flights by this aircraft type
Origin: KPDX Portland Intl
United States
Destination: KYKM Yakima Air Term/Mcallister
United States
More flights between these airports :: More routes between these airports
Route: BTG V448 YKM
File this flight plan on PilotEdge
Remarks:
Altitude:
(Current/Filed)
15,000ft
Speed:
(Current/Filed)
240kts
Departed: 02-Mar-18 04:42 PM
Arrived: 02-Mar-18 05:39 PM
Distance/Time
Traveled:
104nm/0:57
Distance/Time
To Go:
Arrived

Flight Plot

Page will automatically refresh every two minutes.

Flight plan parsing failed; only flown route is shown


Map Options




Map Legend


Flown Route
Filed Route
Departure Airport
Arrival Airport
Navaid (VOR, NDB)
Fix

Horizontal Profiles

Position Reports

Time Latitude Longitude Heading Altitude Ground
Speed
02-Mar-18 16:28 45.587377 -122.582701 209 34ft 0kts
02-Mar-18 16:29 45.587377 -122.582701 209 34ft 0kts
02-Mar-18 16:30 45.587377 -122.582701 209 34ft 0kts
02-Mar-18 16:31 45.587377 -122.582701 209 34ft 0kts
02-Mar-18 16:32 45.587377 -122.582701 209 34ft 0kts
02-Mar-18 16:33 45.587377 -122.582701 209 34ft 0kts
02-Mar-18 16:34 45.587377 -122.582701 209 34ft 0kts
02-Mar-18 16:35 45.587377 -122.582701 209 34ft 0kts
02-Mar-18 16:36 45.587377 -122.582701 209 34ft 0kts
02-Mar-18 16:37 45.587377 -122.582701 209 34ft 0kts
02-Mar-18 16:38 45.587377 -122.582701 209 34ft 0kts
02-Mar-18 16:39 45.587377 -122.582701 209 34ft 0kts
02-Mar-18 16:40 45.587338 -122.582734 209 34ft 2kts
02-Mar-18 16:41 45.587563 -122.582596 342 34ft 9kts
02-Mar-18 16:42 45.589123 -122.584284 298 34ft 22kts
02-Mar-18 16:43 45.590562 -122.587949 299 34ft 25kts
02-Mar-18 16:44 45.592202 -122.592093 300 34ft 25kts
02-Mar-18 16:45 45.593824 -122.596423 288 34ft 24kts
02-Mar-18 16:46 45.594471 -122.597451 38 34ft 0kts
02-Mar-18 16:47 45.594512 -122.597404 38 34ft 3kts
02-Mar-18 16:48 45.595006 -122.595884 112 34ft 14kts
02-Mar-18 16:49 45.589667 -122.582298 120 185ft 139kts
02-Mar-18 16:50 45.579353 -122.555756 117 973ft 177kts
02-Mar-18 16:51 45.565778 -122.524368 118 2433ft 182kts
02-Mar-18 16:52 45.552906 -122.490819 119 4422ft 148kts
02-Mar-18 16:53 45.541313 -122.458161 123 5765ft 156kts
02-Mar-18 16:54 45.547528 -122.423387 46 6976ft 195kts
02-Mar-18 16:55 45.574892 -122.390847 41 8360ft 205kts
02-Mar-18 16:56 45.603952 -122.355891 41 9634ft 212kts
02-Mar-18 16:57 45.633177 -122.320572 42 10944ft 213kts
02-Mar-18 16:58 45.662333 -122.285189 42 12380ft 202kts
02-Mar-18 16:59 45.687429 -122.254653 42 13894ft 190kts
02-Mar-18 17:00 45.711993 -122.224462 41 14960ft 200kts
02-Mar-18 17:01 45.741906 -122.187750 41 15047ft 250kts
02-Mar-18 17:02 45.776116 -122.145847 41 15037ft 273kts
02-Mar-18 17:03 45.810314 -122.103655 41 15033ft 283kts
02-Mar-18 17:04 45.846966 -122.058502 41 15032ft 288kts
02-Mar-18 17:05 45.878757 -122.019308 41 15046ft 288kts
02-Mar-18 17:06 45.921401 -121.966651 41 15049ft 289kts
02-Mar-18 17:07 45.956313 -121.923464 41 15049ft 288kts
02-Mar-18 17:08 45.991772 -121.879631 41 15049ft 287kts
02-Mar-18 17:09 46.023269 -121.840464 41 15059ft 286kts
02-Mar-18 17:10 46.059598 -121.794706 49 15047ft 286kts
02-Mar-18 17:11 46.083019 -121.737968 62 15060ft 284kts
02-Mar-18 17:12 46.105906 -121.678073 61 15056ft 285kts
02-Mar-18 17:13 46.127319 -121.622496 61 15056ft 285kts
02-Mar-18 17:14 46.149986 -121.563563 61 15056ft 285kts
02-Mar-18 17:15 46.174342 -121.500100 61 15057ft 286kts
02-Mar-18 17:16 46.200808 -121.430956 61 15057ft 287kts
02-Mar-18 17:17 46.225070 -121.367422 61 15057ft 288kts
02-Mar-18 17:18 46.250434 -121.300854 62 15055ft 288kts
02-Mar-18 17:19 46.278480 -121.227028 62 15018ft 289kts
02-Mar-18 17:20 46.306972 -121.151676 61 15019ft 288kts
02-Mar-18 17:21 46.335069 -121.076832 61 15019ft 288kts
02-Mar-18 17:22 46.365175 -120.996791 61 14657ft 289kts
02-Mar-18 17:23 46.395632 -120.915752 61 13690ft 284kts
02-Mar-18 17:24 46.423952 -120.840094 61 12778ft 280kts
02-Mar-18 17:25 46.452852 -120.762646 61 11832ft 276kts
02-Mar-18 17:26 46.454455 -120.678449 103 10847ft 253kts
02-Mar-18 17:27 46.443863 -120.601392 103 9885ft 239kts
02-Mar-18 17:28 46.428926 -120.531090 114 8922ft 222kts
02-Mar-18 17:29 46.412096 -120.464831 114 7942ft 209kts
02-Mar-18 17:30 46.396437 -120.401345 113 7034ft 187kts
02-Mar-18 17:31 46.384588 -120.351156 113 6261ft 178kts
02-Mar-18 17:32 46.372706 -120.300134 114 5352ft 176kts
02-Mar-18 17:33 46.381020 -120.253339 18 5004ft 180kts
02-Mar-18 17:34 46.415789 -120.238557 13 4487ft 182kts
02-Mar-18 17:35 46.448574 -120.226629 352 4325ft 160kts
02-Mar-18 17:36 46.473202 -120.251954 313 4340ft 146kts
02-Mar-18 17:37 46.495454 -120.279729 313 4305ft 145kts
02-Mar-18 17:38 46.512619 -120.310321 274 4294ft 125kts
02-Mar-18 17:39 46.518840 -120.344849 282 3794ft 126kts
02-Mar-18 17:40 46.526848 -120.377377 282 3333ft 128kts
02-Mar-18 17:41 46.535650 -120.412386 282 2821ft 122kts
02-Mar-18 17:42 46.543223 -120.442655 281 2397ft 122kts
02-Mar-18 17:43 46.550493 -120.471581 281 1986ft 120kts
02-Mar-18 17:44 46.557706 -120.500347 280 1581ft 121kts
02-Mar-18 17:45 46.564790 -120.528602 280 1179ft 122kts
02-Mar-18 17:46 46.569199 -120.545722 273 1104ft 33kts
02-Mar-18 17:47 46.570872 -120.549266 19 1104ft 0kts
02-Mar-18 17:48 46.570872 -120.549266 19 1104ft 0kts
02-Mar-18 17:49 46.572088 -120.549988 358 1104ft 0kts
02-Mar-18 17:50 46.572088 -120.549988 358 1104ft 0kts

Navigation Log

Ident Type
Flight plan parsing failed, navigation log unavailable